sensor_id;sensor_type;location;lat;lon;timestamp;pressure;altitude;pressure_sealevel;temperature;humidity
63343;BME280;49465;57.664;39.686;2022-12-10T00:02:17;100503.44;;;-1.58;58.59
63343;BME280;49465;57.664;39.686;2022-12-10T00:04:46;100503.31;;;-2.33;60.14
63343;BME280;49465;57.664;39.686;2022-12-10T00:07:15;100509.44;;;-1.58;58.88
63343;BME280;49465;57.664;39.686;2022-12-10T00:09:42;100499.84;;;-2.32;60.26
63343;BME280;49465;57.664;39.686;2022-12-10T00:12:08;100509.34;;;-2.42;60.26
63343;BME280;49465;57.664;39.686;2022-12-10T00:14:37;100519.56;;;-2.34;60.82
63343;BME280;49465;57.664;39.686;2022-12-10T00:17:06;100511.00;;;-2.34;61.20
63343;BME280;49465;57.664;39.686;2022-12-10T00:19:41;100505.88;;;-2.34;61.18
63343;BME280;49465;57.664;39.686;2022-12-10T00:22:13;100506.94;;;-1.63;59.08
63343;BME280;49465;57.664;39.686;2022-12-10T00:24:48;100519.44;;;-2.17;60.16
63343;BME280;49465;57.664;39.686;2022-12-10T00:27:20;100516.22;;;-2.42;60.58
63343;BME280;49465;57.664;39.686;2022-12-10T00:29:49;100518.06;;;-1.62;59.41
63343;BME280;49465;57.664;39.686;2022-12-10T00:32:18;100505.88;;;-2.34;60.36
63343;BME280;49465;57.664;39.686;2022-12-10T00:34:47;100505.09;;;-2.43;60.66
63343;BME280;49465;57.664;39.686;2022-12-10T00:37:16;100503.38;;;-2.45;60.96
63343;BME280;49465;57.664;39.686;2022-12-10T00:39:45;100502.44;;;-2.33;61.48
63343;BME280;49465;57.664;39.686;2022-12-10T00:42:14;100495.78;;;-1.65;59.88
63343;BME280;49465;57.664;39.686;2022-12-10T00:44:44;100500.75;;;-2.36;60.71
63343;BME280;49465;57.664;39.686;2022-12-10T00:47:12;100494.91;;;-1.61;58.90
63343;BME280;49465;57.664;39.686;2022-12-10T00:49:39;100495.59;;;-2.34;60.70
63343;BME280;49465;57.664;39.686;2022-12-10T00:52:11;100491.44;;;-1.60;58.67
63343;BME280;49465;57.664;39.686;2022-12-10T00:54:39;100493.88;;;-2.34;60.40
63343;BME280;49465;57.664;39.686;2022-12-10T00:57:08;100500.81;;;-2.44;61.18
63343;BME280;49465;57.664;39.686;2022-12-10T00:59:35;100492.34;;;-1.64;59.17
63343;BME280;49465;57.664;39.686;2022-12-10T01:02:06;100502.47;;;-1.50;58.77
63343;BME280;49465;57.664;39.686;2022-12-10T01:04:35;100509.19;;;-2.20;60.45
63343;BME280;49465;57.664;39.686;2022-12-10T01:07:04;100512.69;;;-2.32;60.56
63343;BME280;49465;57.664;39.686;2022-12-10T01:09:33;100511.00;;;-2.33;61.28
63343;BME280;49465;57.664;39.686;2022-12-10T01:12:04;100502.47;;;-2.40;61.48
63343;BME280;49465;57.664;39.686;2022-12-10T01:14:36;100497.50;;;-1.65;59.89
63343;BME280;49465;57.664;39.686;2022-12-10T01:17:05;100503.19;;;-2.22;61.14
63343;BME280;49465;57.664;39.686;2022-12-10T01:19:34;100497.44;;;-1.57;59.30
63343;BME280;49465;57.664;39.686;2022-12-10T01:22:04;100496.38;;;-2.23;61.09
63343;BME280;49465;57.664;39.686;2022-12-10T01:24:38;100499.00;;;-2.31;61.54
63343;BME280;49465;57.664;39.686;2022-12-10T01:27:04;100496.59;;;-1.61;59.45
63343;BME280;49465;57.664;39.686;2022-12-10T01:29:31;100490.47;;;-2.34;60.99
63343;BME280;49465;57.664;39.686;2022-12-10T01:32:02;100491.31;;;-2.31;61.50
63343;BME280;49465;57.664;39.686;2022-12-10T01:34:31;100489.69;;;-2.47;61.89
63343;BME280;49465;57.664;39.686;2022-12-10T01:37:03;100486.38;;;-1.64;60.32
63343;BME280;49465;57.664;39.686;2022-12-10T01:39:32;100494.66;;;-2.24;61.20
63343;BME280;49465;57.664;39.686;2022-12-10T01:42:01;100498.13;;;-2.30;61.45
63343;BME280;49465;57.664;39.686;2022-12-10T01:47:02;100499.22;;;-1.63;59.50
63343;BME280;49465;57.664;39.686;2022-12-10T01:49:38;100506.53;;;-2.09;61.23
63343;BME280;49465;57.664;39.686;2022-12-10T01:52:08;100488.81;;;-1.55;59.73
63343;BME280;49465;57.664;39.686;2022-12-10T01:54:44;100491.19;;;-2.17;60.70
63343;BME280;49465;57.664;39.686;2022-12-10T01:57:24;100484.50;;;-1.51;59.02
63343;BME280;49465;57.664;39.686;2022-12-10T02:00:00;100486.09;;;-1.41;58.71
63343;BME280;49465;57.664;39.686;2022-12-10T02:02:34;100485.25;;;-2.25;60.23
63343;BME280;49465;57.664;39.686;2022-12-10T02:05:31;100492.19;;;-1.48;59.06
63343;BME280;49465;57.664;39.686;2022-12-10T02:08:24;100492.91;;;-1.37;58.52
63343;BME280;49465;57.664;39.686;2022-12-10T02:11:19;100481.38;;;-1.78;59.91
63343;BME280;49465;57.664;39.686;2022-12-10T02:14:09;100487.06;;;-1.50;58.59
63343;BME280;49465;57.664;39.686;2022-12-10T02:16:41;100486.03;;;-2.19;60.53
63343;BME280;49465;57.664;39.686;2022-12-10T02:22:10;100484.22;;;-2.06;60.41
63343;BME280;49465;57.664;39.686;2022-12-10T02:24:40;100477.59;;;-2.31;60.73
63343;BME280;49465;57.664;39.686;2022-12-10T02:30:03;100473.25;;;-1.43;59.07
63343;BME280;49465;57.664;39.686;2022-12-10T02:32:38;100478.31;;;-1.36;58.41
63343;BME280;49465;57.664;39.686;2022-12-10T02:35:20;100482.50;;;-2.04;60.10
63343;BME280;49465;57.664;39.686;2022-12-10T02:37:59;100477.44;;;-2.14;60.94
63343;BME280;49465;57.664;39.686;2022-12-10T02:40:33;100475.09;;;-1.54;59.41
63343;BME280;49465;57.664;39.686;2022-12-10T02:43:05;100475.00;;;-2.28;60.16
63343;BME280;49465;57.664;39.686;2022-12-10T02:45:42;100483.47;;;-2.15;60.80
63343;BME280;49465;57.664;39.686;2022-12-10T02:48:20;100469.13;;;-1.54;59.51
63343;BME280;49465;57.664;39.686;2022-12-10T02:50:56;100468.00;;;-2.11;60.67
63343;BME280;49465;57.664;39.686;2022-12-10T02:53:23;100463.09;;;-2.39;60.65
63343;BME280;49465;57.664;39.686;2022-12-10T03:01:52;100449.38;;;-1.51;59.10
63343;BME280;49465;57.664;39.686;2022-12-10T03:07:19;100449.78;;;-1.88;60.46
63343;BME280;49465;57.664;39.686;2022-12-10T03:10:02;100450.00;;;-2.12;61.42
63343;BME280;49465;57.664;39.686;2022-12-10T03:13:01;100456.69;;;-1.94;61.21
63343;BME280;49465;57.664;39.686;2022-12-10T03:15:34;100451.97;;;-1.54;59.13
63343;BME280;49465;57.664;39.686;2022-12-10T03:18:09;100458.63;;;-2.15;60.51
63343;BME280;49465;57.664;39.686;2022-12-10T03:20:47;100460.28;;;-2.12;61.27
63343;BME280;49465;57.664;39.686;2022-12-10T03:23:19;100467.41;;;-1.55;59.75
63343;BME280;49465;57.664;39.686;2022-12-10T03:26:04;100466.38;;;-1.41;58.53
63343;BME280;49465;57.664;39.686;2022-12-10T03:28:55;100467.81;;;-1.92;60.44
63343;BME280;49465;57.664;39.686;2022-12-10T03:31:29;100468.13;;;-2.23;61.34
63343;BME280;49465;57.664;39.686;2022-12-10T03:34:09;100475.00;;;-2.25;61.26
63343;BME280;49465;57.664;39.686;2022-12-10T03:36:42;100465.72;;;-1.56;59.24
63343;BME280;49465;57.664;39.686;2022-12-10T03:39:13;100459.56;;;-2.27;61.15
63343;BME280;49465;57.664;39.686;2022-12-10T03:41:40;100465.66;;;-1.55;59.44
63343;BME280;49465;57.664;39.686;2022-12-10T03:44:06;100463.03;;;-2.29;60.51
63343;BME280;49465;57.664;39.686;2022-12-10T03:46:41;100467.38;;;-2.38;61.66
63343;BME280;49465;57.664;39.686;2022-12-10T03:49:13;100470.84;;;-1.56;59.71
63343;BME280;49465;57.664;39.686;2022-12-10T03:51:42;100462.16;;;-2.30;60.58
63343;BME280;49465;57.664;39.686;2022-12-10T03:54:09;100462.25;;;-2.39;61.07
63343;BME280;49465;57.664;39.686;2022-12-10T03:56:37;100470.84;;;-1.56;59.92
63343;BME280;49465;57.664;39.686;2022-12-10T03:59:04;100465.63;;;-2.31;60.74
63343;BME280;49465;57.664;39.686;2022-12-10T04:01:32;100466.53;;;-2.40;61.54
63343;BME280;49465;57.664;39.686;2022-12-10T04:04:02;100469.13;;;-2.43;61.25
63343;BME280;49465;57.664;39.686;2022-12-10T04:06:38;100467.41;;;-2.42;62.00
63343;BME280;49465;57.664;39.686;2022-12-10T04:09:10;100464.00;;;-1.57;59.85
63343;BME280;49465;57.664;39.686;2022-12-10T04:11:39;100461.25;;;-2.21;61.63
63343;BME280;49465;57.664;39.686;2022-12-10T04:14:05;100451.94;;;-2.38;62.07
63343;BME280;49465;57.664;39.686;2022-12-10T04:17:01;100445.97;;;-1.54;59.58
63343;BME280;49465;57.664;39.686;2022-12-10T04:19:28;100445.81;;;-1.42;58.84
63343;BME280;49465;57.664;39.686;2022-12-10T04:21:54;100446.69;;;-2.24;61.10
63343;BME280;49465;57.664;39.686;2022-12-10T04:24:41;100445.91;;;-2.33;61.23
63343;BME280;49465;57.664;39.686;2022-12-10T04:27:35;100435.66;;;-1.53;58.95
63343;BME280;49465;57.664;39.686;2022-12-10T04:30:10;100435.50;;;-2.18;61.29
63343;BME280;49465;57.664;39.686;2022-12-10T04:32:38;100435.66;;;-2.33;61.30
63343;BME280;49465;57.664;39.686;2022-12-10T04:35:05;100449.38;;;-1.54;60.14
63343;BME280;49465;57.664;39.686;2022-12-10T04:37:32;100455.28;;;-2.26;61.19
63343;BME280;49465;57.664;39.686;2022-12-10T04:39:58;100463.06;;;-2.35;61.57
63343;BME280;49465;57.664;39.686;2022-12-10T04:42:25;100463.94;;;-2.38;62.25
63343;BME280;49465;57.664;39.686;2022-12-10T04:44:51;100469.97;;;-1.55;60.24
63343;BME280;49465;57.664;39.686;2022-12-10T04:47:20;100468.13;;;-2.28;61.52
63343;BME280;49465;57.664;39.686;2022-12-10T04:49:46;100468.22;;;-1.52;59.87
63343;BME280;49465;57.664;39.686;2022-12-10T04:52:14;100453.53;;;-2.23;60.94
63343;BME280;49465;57.664;39.686;2022-12-10T04:54:44;100463.06;;;-2.32;61.40
63343;BME280;49465;57.664;39.686;2022-12-10T04:57:10;100469.94;;;-2.36;61.94
63343;BME280;49465;57.664;39.686;2022-12-10T04:59:39;100476.78;;;-2.36;61.61
63343;BME280;49465;57.664;39.686;2022-12-10T05:02:06;100480.25;;;-1.55;60.75
63343;BME280;49465;57.664;39.686;2022-12-10T05:04:33;100488.69;;;-2.26;61.44
63343;BME280;49465;57.664;39.686;2022-12-10T05:07:04;100487.84;;;-2.25;61.81
63343;BME280;49465;57.664;39.686;2022-12-10T05:09:33;100496.38;;;-2.25;62.31
63343;BME280;49465;57.664;39.686;2022-12-10T05:12:03;100484.50;;;-2.38;61.58
63343;BME280;49465;57.664;39.686;2022-12-10T05:14:32;100483.66;;;-1.55;60.67
63343;BME280;49465;57.664;39.686;2022-12-10T05:17:03;100492.84;;;-2.14;61.54
63343;BME280;49465;57.664;39.686;2022-12-10T05:19:33;100484.44;;;-2.33;61.95
63343;BME280;49465;57.664;39.686;2022-12-10T05:22:04;100486.09;;;-2.25;61.83
63343;BME280;49465;57.664;39.686;2022-12-10T05:24:49;100482.78;;;-1.51;59.92
63343;BME280;49465;57.664;39.686;2022-12-10T05:27:15;100485.25;;;-2.25;61.39
63343;BME280;49465;57.664;39.686;2022-12-10T05:29:42;100485.31;;;-2.33;61.73
63343;BME280;49465;57.664;39.686;2022-12-10T05:32:10;100495.69;;;-1.54;60.38
63343;BME280;49465;57.664;39.686;2022-12-10T05:34:37;100486.09;;;-2.25;61.60
63343;BME280;49465;57.664;39.686;2022-12-10T05:37:03;100482.75;;;-2.33;61.77
63343;BME280;49465;57.664;39.686;2022-12-10T05:39:29;100484.50;;;-2.35;62.12
63343;BME280;49465;57.664;39.686;2022-12-10T05:42:01;100485.25;;;-2.25;62.37
63343;BME280;49465;57.664;39.686;2022-12-10T05:44:36;100487.06;;;-1.51;60.98
63343;BME280;49465;57.664;39.686;2022-12-10T05:47:04;100482.66;;;-2.24;61.92
63343;BME280;49465;57.664;39.686;2022-12-10T05:49:39;100485.13;;;-2.11;62.84
63343;BME280;49465;57.664;39.686;2022-12-10T05:52:13;100474.09;;;-2.24;63.20
63343;BME280;49465;57.664;39.686;2022-12-10T05:54:40;100473.34;;;-1.50;60.68
63343;BME280;49465;57.664;39.686;2022-12-10T05:57:09;100465.50;;;-2.22;62.10
63343;BME280;49465;57.664;39.686;2022-12-10T05:59:35;100463.88;;;-2.30;62.97
63343;BME280;49465;57.664;39.686;2022-12-10T06:02:02;100463.91;;;-2.33;62.44
63343;BME280;49465;57.664;39.686;2022-12-10T06:04:28;100474.16;;;-2.32;62.56
63343;BME280;49465;57.664;39.686;2022-12-10T06:06:57;100472.50;;;-1.51;60.77
63343;BME280;49465;57.664;39.686;2022-12-10T06:09:29;100472.28;;;-1.34;59.59
63343;BME280;49465;57.664;39.686;2022-12-10T06:12:01;100476.59;;;-2.15;61.68
63343;BME280;49465;57.664;39.686;2022-12-10T06:14:36;100478.28;;;-2.12;63.11
63343;BME280;49465;57.664;39.686;2022-12-10T06:17:08;100486.88;;;-2.15;62.77
63343;BME280;49465;57.664;39.686;2022-12-10T06:19:37;100488.72;;;-1.44;60.89
63343;BME280;49465;57.664;39.686;2022-12-10T06:22:11;100491.06;;;-2.06;62.32
63343;BME280;49465;57.664;39.686;2022-12-10T06:24:46;100492.94;;;-1.38;60.59
63343;BME280;49465;57.664;39.686;2022-12-10T06:27:21;100488.47;;;-2.02;62.67
63343;BME280;49465;57.664;39.686;2022-12-10T06:29:55;100491.97;;;-2.12;63.06
63343;BME280;49465;57.664;39.686;2022-12-10T06:32:26;100486.88;;;-2.16;63.29
63343;BME280;49465;57.664;39.686;2022-12-10T06:34:59;100474.97;;;-1.43;60.95
63343;BME280;49465;57.664;39.686;2022-12-10T06:37:34;100467.03;;;-2.02;62.66
63343;BME280;49465;57.664;39.686;2022-12-10T06:40:10;100464.63;;;-1.37;60.70
63343;BME280;49465;57.664;39.686;2022-12-10T06:42:42;100470.44;;;-1.23;60.24
63343;BME280;49465;57.664;39.686;2022-12-10T06:45:15;100470.44;;;-1.97;62.39
63343;BME280;49465;57.664;39.686;2022-12-10T06:47:52;100464.56;;;-1.32;60.92
63343;BME280;49465;57.664;39.686;2022-12-10T06:50:24;100467.00;;;-1.96;62.54
63343;BME280;49465;57.664;39.686;2022-12-10T06:52:54;100463.75;;;-2.16;62.69
63343;BME280;49465;57.664;39.686;2022-12-10T06:55:28;100465.47;;;-1.36;61.43
63343;BME280;49465;57.664;39.686;2022-12-10T06:58:00;100462.72;;;-1.95;62.70
63343;BME280;49465;57.664;39.686;2022-12-10T07:00:35;100449.09;;;-1.29;60.57
63343;BME280;49465;57.664;39.686;2022-12-10T07:03:08;100453.28;;;-1.95;62.28
63343;BME280;49465;57.664;39.686;2022-12-10T07:05:40;100456.75;;;-2.01;63.43
63343;BME280;49465;57.664;39.686;2022-12-10T07:08:09;100453.41;;;-1.31;61.15
63343;BME280;49465;57.664;39.686;2022-12-10T07:10:44;100463.53;;;-1.92;62.00
63343;BME280;49465;57.664;39.686;2022-12-10T07:13:20;100461.03;;;-1.25;61.48
63343;BME280;49465;57.664;39.686;2022-12-10T07:15:54;100470.34;;;-1.88;62.57
63343;BME280;49465;57.664;39.686;2022-12-10T07:18:25;100472.94;;;-1.18;60.71
63343;BME280;49465;57.664;39.686;2022-12-10T07:21:00;100475.41;;;-1.09;60.15
63343;BME280;49465;57.664;39.686;2022-12-10T07:23:35;100472.75;;;-1.04;59.81
63343;BME280;49465;57.664;39.686;2022-12-10T07:26:10;100467.56;;;-1.01;59.71
63343;BME280;49465;57.664;39.686;2022-12-10T07:28:42;100469.47;;;-1.87;61.83
63343;BME280;49465;57.664;39.686;2022-12-10T07:31:16;100472.91;;;-1.15;60.95
63343;BME280;49465;57.664;39.686;2022-12-10T07:33:49;100480.50;;;-1.75;62.49
63343;BME280;49465;57.664;39.686;2022-12-10T07:36:24;100477.16;;;-1.12;60.50
63343;BME280;49465;57.664;39.686;2022-12-10T07:38:58;100475.31;;;-1.72;62.22
63343;BME280;49465;57.664;39.686;2022-12-10T07:41:30;100471.13;;;-1.83;62.92
63343;BME280;49465;57.664;39.686;2022-12-10T07:44:02;100466.03;;;-1.84;63.42
63343;BME280;49465;57.664;39.686;2022-12-10T07:46:34;100471.13;;;-1.81;63.36
63343;BME280;49465;57.664;39.686;2022-12-10T07:49:10;100463.44;;;-1.11;61.13
63343;BME280;49465;57.664;39.686;2022-12-10T07:51:50;100468.38;;;-1.67;62.56
63343;BME280;49465;57.664;39.686;2022-12-10T07:54:22;100459.91;;;-1.72;62.71
63343;BME280;49465;57.664;39.686;2022-12-10T07:56:57;100464.22;;;-1.76;63.10
63343;BME280;49465;57.664;39.686;2022-12-10T07:59:29;100465.00;;;-1.03;60.98
63343;BME280;49465;57.664;39.686;2022-12-10T08:02:02;100457.09;;;-0.89;60.54
63343;BME280;49465;57.664;39.686;2022-12-10T08:04:34;100462.25;;;-1.55;61.86
63343;BME280;49465;57.664;39.686;2022-12-10T08:07:06;100457.19;;;-1.63;62.20
63343;BME280;49465;57.664;39.686;2022-12-10T08:09:41;100453.72;;;-1.57;62.75
63343;BME280;49465;57.664;39.686;2022-12-10T08:12:18;100459.69;;;-0.90;60.84
63343;BME280;49465;57.664;39.686;2022-12-10T08:14:52;100460.38;;;-1.41;61.96
63343;BME280;49465;57.664;39.686;2022-12-10T08:17:29;100462.16;;;-1.48;62.76
63343;BME280;49465;57.664;39.686;2022-12-10T08:20:06;100463.97;;;-1.56;62.64
63343;BME280;49465;57.664;39.686;2022-12-10T08:22:42;100466.47;;;-1.47;62.59
63343;BME280;49465;57.664;39.686;2022-12-10T08:25:17;100468.13;;;-1.46;62.91
63343;BME280;49465;57.664;39.686;2022-12-10T08:27:55;100467.25;;;-0.80;61.24
63343;BME280;49465;57.664;39.686;2022-12-10T08:30:26;100469.78;;;-1.40;62.19
63343;BME280;49465;57.664;39.686;2022-12-10T08:33:00;100474.88;;;-1.35;62.80
63343;BME280;49465;57.664;39.686;2022-12-10T08:35:35;100468.88;;;-0.72;61.05
63343;BME280;49465;57.664;39.686;2022-12-10T08:38:09;100467.03;;;-1.25;62.46
63343;BME280;49465;57.664;39.686;2022-12-10T08:40:47;100464.47;;;-0.66;60.31
63343;BME280;49465;57.664;39.686;2022-12-10T08:43:22;100472.97;;;-1.20;61.77
63343;BME280;49465;57.664;39.686;2022-12-10T08:45:54;100467.84;;;-0.62;60.56
63343;BME280;49465;57.664;39.686;2022-12-10T08:48:29;100466.03;;;-1.16;61.88
63343;BME280;49465;57.664;39.686;2022-12-10T08:51:04;100461.81;;;-1.22;62.24
63343;BME280;49465;57.664;39.686;2022-12-10T08:53:37;100464.53;;;-1.29;62.27
63343;BME280;49465;57.664;39.686;2022-12-10T08:56:09;100467.13;;;-1.31;62.44
63343;BME280;49465;57.664;39.686;2022-12-10T08:58:45;100467.84;;;-1.21;62.86
63343;BME280;49465;57.664;39.686;2022-12-10T09:01:19;100462.72;;;-1.23;62.70
63343;BME280;49465;57.664;39.686;2022-12-10T09:03:50;100451.59;;;-1.26;62.17
63343;BME280;49465;57.664;39.686;2022-12-10T09:06:26;100459.28;;;-1.23;62.78
63343;BME280;49465;57.664;39.686;2022-12-10T09:08:55;100459.31;;;-1.26;62.37
63343;BME280;49465;57.664;39.686;2022-12-10T09:11:31;100458.41;;;-1.21;62.64
63343;BME280;49465;57.664;39.686;2022-12-10T09:14:02;100460.13;;;-1.20;62.15
63343;BME280;49465;57.664;39.686;2022-12-10T09:16:36;100454.06;;;-1.18;62.98
63343;BME280;49465;57.664;39.686;2022-12-10T09:19:10;100459.25;;;-1.22;62.55
63343;BME280;49465;57.664;39.686;2022-12-10T09:21:40;100457.69;;;-1.32;62.27
63343;BME280;49465;57.664;39.686;2022-12-10T09:24:14;100448.09;;;-1.21;62.22
63343;BME280;49465;57.664;39.686;2022-12-10T09:26:45;100454.97;;;-1.21;62.69
63343;BME280;49465;57.664;39.686;2022-12-10T09:29:16;100447.34;;;-1.29;62.44
63343;BME280;49465;57.664;39.686;2022-12-10T09:31:49;100452.16;;;-0.47;60.95
63343;BME280;49465;57.664;39.686;2022-12-10T09:34:26;100452.03;;;-0.95;62.25
63343;BME280;49465;57.664;39.686;2022-12-10T09:36:58;100459.94;;;-1.09;62.55
63343;BME280;49465;57.664;39.686;2022-12-10T09:39:32;100462.44;;;-1.03;62.97
63343;BME280;49465;57.664;39.686;2022-12-10T09:45:09;100460.50;;;-0.32;60.45
63343;BME280;49465;57.664;39.686;2022-12-10T09:53:14;100463.56;;;-0.12;59.73
63343;BME280;49465;57.664;39.686;2022-12-10T09:55:49;100452.53;;;-0.71;61.95
63343;BME280;49465;57.664;39.686;2022-12-10T09:58:26;100454.41;;;-0.83;62.23
63343;BME280;49465;57.664;39.686;2022-12-10T10:01:08;100442.31;;;-0.74;62.63
63343;BME280;49465;57.664;39.686;2022-12-10T10:03:43;100451.88;;;-0.84;62.79
63343;BME280;49465;57.664;39.686;2022-12-10T10:06:19;100447.69;;;-0.90;62.69
63343;BME280;49465;57.664;39.686;2022-12-10T10:08:53;100448.53;;;-0.91;62.59
63343;BME280;49465;57.664;39.686;2022-12-10T10:11:31;100446.47;;;-0.67;62.15
63343;BME280;49465;57.664;39.686;2022-12-10T10:14:30;100452.38;;;-0.09;60.48
63343;BME280;49465;57.664;39.686;2022-12-10T10:17:07;100460.28;;;-0.73;61.92
63343;BME280;49465;57.664;39.686;2022-12-10T10:19:38;100461.38;;;-0.88;62.17
63343;BME280;49465;57.664;39.686;2022-12-10T10:22:13;100465.50;;;-0.77;62.46
63343;BME280;49465;57.664;39.686;2022-12-10T10:24:44;100457.91;;;-0.85;62.10
63343;BME280;49465;57.664;39.686;2022-12-10T10:27:22;100463.66;;;-0.69;62.35
63343;BME280;49465;57.664;39.686;2022-12-10T10:29:58;100462.94;;;-0.77;62.31
63343;BME280;49465;57.664;39.686;2022-12-10T10:35:49;100464.84;;;-0.34;62.18
63343;BME280;49465;57.664;39.686;2022-12-10T10:38:30;100462.66;;;-0.59;62.31
63343;BME280;49465;57.664;39.686;2022-12-10T10:41:02;100458.16;;;0.04;60.52
63343;BME280;49465;57.664;39.686;2022-12-10T10:43:43;100464.09;;;-0.41;61.73
63343;BME280;49465;57.664;39.686;2022-12-10T10:46:28;100463.31;;;-0.48;61.83
63343;BME280;49465;57.664;39.686;2022-12-10T10:49:17;100457.94;;;-0.32;61.90
63343;BME280;49465;57.664;39.686;2022-12-10T10:51:51;100450.66;;;-0.60;62.16
63343;BME280;49465;57.664;39.686;2022-12-10T10:54:42;100453.56;;;-0.29;61.82
63343;BME280;49465;57.664;39.686;2022-12-10T11:02:52;100451.94;;;-0.34;62.08
63343;BME280;49465;57.664;39.686;2022-12-10T11:05:34;100441.03;;;-0.49;62.07
63343;BME280;49465;57.664;39.686;2022-12-10T11:08:17;100444.03;;;0.23;60.04
63343;BME280;49465;57.664;39.686;2022-12-10T11:11:07;100437.88;;;-0.15;61.23
63343;BME280;49465;57.664;39.686;2022-12-10T11:13:39;100437.50;;;-0.43;61.83
63343;BME280;49465;57.664;39.686;2022-12-10T11:16:28;100433.63;;;-0.17;61.52
63343;BME280;49465;57.664;39.686;2022-12-10T11:19:25;100433.91;;;-0.33;61.61
63343;BME280;49465;57.664;39.686;2022-12-10T11:21:58;100437.47;;;-0.42;61.66
63343;BME280;49465;57.664;39.686;2022-12-10T11:24:59;100428.75;;;-0.33;61.51
63343;BME280;49465;57.664;39.686;2022-12-10T11:30:31;100429.63;;;-0.35;61.30
63343;BME280;49465;57.664;39.686;2022-12-10T11:33:34;100424.81;;;-0.06;61.25
63343;BME280;49465;57.664;39.686;2022-12-10T11:42:21;100431.91;;;-0.17;61.24
63343;BME280;49465;57.664;39.686;2022-12-10T11:50:52;100432.38;;;0.04;60.79
63343;BME280;49465;57.664;39.686;2022-12-10T11:56:47;100427.81;;;-0.30;61.14
63343;BME280;49465;57.664;39.686;2022-12-10T12:02:22;100432.75;;;-0.16;60.59
63343;BME280;49465;57.664;39.686;2022-12-10T12:05:27;100433.31;;;-0.01;60.45
63343;BME280;49465;57.664;39.686;2022-12-10T12:13:27;100425.97;;;-0.24;60.89
63343;BME280;49465;57.664;39.686;2022-12-10T12:16:36;100429.03;;;-0.02;60.52
63343;BME280;49465;57.664;39.686;2022-12-10T12:19:19;100418.22;;;-0.22;60.76
63343;BME280;49465;57.664;39.686;2022-12-10T12:21:57;100427.03;;;-0.34;60.99
63343;BME280;49465;57.664;39.686;2022-12-10T12:24:40;100417.41;;;-0.24;60.85
63343;BME280;49465;57.664;39.686;2022-12-10T12:27:41;100425.56;;;0.01;60.90
63343;BME280;49465;57.664;39.686;2022-12-10T12:30:22;100433.91;;;-0.34;60.39
63343;BME280;49465;57.664;39.686;2022-12-10T12:33:11;100436.03;;;-0.08;60.55
63343;BME280;49465;57.664;39.686;2022-12-10T12:36:23;100440.91;;;0.06;60.29
63343;BME280;49465;57.664;39.686;2022-12-10T12:42:03;100439.75;;;-0.23;60.76
63343;BME280;49465;57.664;39.686;2022-12-10T12:47:39;100420.13;;;-0.33;60.52
63343;BME280;49465;57.664;39.686;2022-12-10T12:50:47;100424.06;;;-0.11;60.52
63343;BME280;49465;57.664;39.686;2022-12-10T12:53:23;100426.22;;;-0.36;61.01
63343;BME280;49465;57.664;39.686;2022-12-10T12:56:11;100417.41;;;-0.24;60.54
63343;BME280;49465;57.664;39.686;2022-12-10T13:01:50;100417.41;;;-0.24;60.47
63343;BME280;49465;57.664;39.686;2022-12-10T13:04:25;100419.38;;;-0.38;60.91
63343;BME280;49465;57.664;39.686;2022-12-10T13:10:42;100406.53;;;-0.42;61.29
63343;BME280;49465;57.664;39.686;2022-12-10T13:12:47;100412.38;;;-0.32;61.24
63343;BME280;49465;57.664;39.686;2022-12-10T13:15:40;100413.56;;;-0.51;61.20
63343;BME280;49465;57.664;39.686;2022-12-10T13:20:50;100418.44;;;-0.34;60.71
63343;BME280;49465;57.664;39.686;2022-12-10T13:23:52;100417.38;;;-0.21;61.04
63343;BME280;49465;57.664;39.686;2022-12-10T13:26:30;100420.44;;;-0.50;60.99
63343;BME280;49465;57.664;39.686;2022-12-10T13:29:22;100416.72;;;0.13;59.16
63343;BME280;49465;57.664;39.686;2022-12-10T13:32:20;100413.06;;;-0.22;60.52
63343;BME280;49465;57.664;39.686;2022-12-10T13:40:41;100412.88;;;-0.60;61.03
63343;BME280;49465;57.664;39.686;2022-12-10T13:43:36;100417.25;;;-0.65;61.04
63343;BME280;49465;57.664;39.686;2022-12-10T13:49:25;100418.00;;;-0.60;60.74
63343;BME280;49465;57.664;39.686;2022-12-10T13:52:25;100418.59;;;0.05;59.37
63343;BME280;49465;57.664;39.686;2022-12-10T13:55:32;100418.38;;;-0.30;60.41
63343;BME280;49465;57.664;39.686;2022-12-10T14:02:13;100420.47;;;-0.52;60.70
63343;BME280;49465;57.664;39.686;2022-12-10T14:07:11;100416.22;;;-0.53;60.63
63343;BME280;49465;57.664;39.686;2022-12-10T14:09:51;100415.34;;;-0.53;60.71
63343;BME280;49465;57.664;39.686;2022-12-10T14:12:35;100416.16;;;-0.02;59.23
63343;BME280;49465;57.664;39.686;2022-12-10T14:15:19;100416.91;;;-0.43;60.75
63343;BME280;49465;57.664;39.686;2022-12-10T14:18:02;100421.50;;;-0.62;60.59
63343;BME280;49465;57.664;39.686;2022-12-10T14:20:34;100407.84;;;-0.69;61.28
63343;BME280;49465;57.664;39.686;2022-12-10T14:23:29;100419.63;;;-0.04;59.13
63343;BME280;49465;57.664;39.686;2022-12-10T14:26:16;100416.22;;;-0.54;60.74
63343;BME280;49465;57.664;39.686;2022-12-10T14:28:58;100410.50;;;-0.72;61.25
63343;BME280;49465;57.664;39.686;2022-12-10T14:31:38;100418.09;;;-0.64;61.03
63343;BME280;49465;57.664;39.686;2022-12-10T14:34:12;100418.25;;;-0.73;61.40
63343;BME280;49465;57.664;39.686;2022-12-10T14:36:50;100423.50;;;-0.80;61.29
63343;BME280;49465;57.664;39.686;2022-12-10T14:39:30;100416.56;;;-0.74;61.22
63343;BME280;49465;57.664;39.686;2022-12-10T14:42:05;100418.94;;;-0.14;59.11
63343;BME280;49465;57.664;39.686;2022-12-10T14:44:35;100416.59;;;-0.77;60.91
63343;BME280;49465;57.664;39.686;2022-12-10T14:47:11;100415.03;;;-0.88;61.40
63343;BME280;49465;57.664;39.686;2022-12-10T14:49:45;100415.50;;;-0.14;59.36
63343;BME280;49465;57.664;39.686;2022-12-10T14:52:23;100408.59;;;-0.61;60.38
63343;BME280;49465;57.664;39.686;2022-12-10T14:54:59;100409.78;;;-0.82;60.93